Time;durP1;ratioP1;P1;durP2;ratioP2;P2;SDS_P1;SDS_P2;PMS_P1;PMS_P2;Temp;Humidity;BMP_temperature;BMP_pressure;BME280_temperature;BME280_humidity;BME280_pressure;Samples;Min_cycle;Max_cycle;Signal;HPM_P1;HPM_P2
2021/06/03 00:02:06;;;;;;;4.25;2.17;;;;;;;15.66;100.00;101177.52;1758535;81;21340;-68
2021/06/03 00:04:40;;;;;;;7.22;2.00;;;;;;;15.65;100.00;101174.98;1773116;81;21380;-69
2021/06/03 00:07:14;;;;;;;8.93;2.72;;;;;;;15.66;100.00;101179.47;1707524;82;21202;-70
2021/06/03 00:09:46;;;;;;;4.07;2.93;;;;;;;15.65;100.00;101176.39;1707486;83;21206;-68
2021/06/03 00:12:20;;;;;;;5.10;2.62;;;;;;;15.65;100.00;101177.21;1707307;84;21203;-70
2021/06/03 00:14:54;;;;;;;4.78;2.75;;;;;;;15.63;100.00;101173.05;1707330;84;21242;-70
2021/06/03 00:17:28;;;;;;;3.22;2.37;;;;;;;15.61;100.00;101174.72;1682471;84;21369;-69
2021/06/03 00:20:01;;;;;;;8.53;2.62;;;;;;;15.63;100.00;101176.66;1700403;84;21221;-68
2021/06/03 00:22:34;;;;;;;4.40;3.10;;;;;;;15.63;100.00;101171.64;1700314;84;21740;-69
2021/06/03 00:25:08;;;;;;;4.33;3.12;;;;;;;15.64;100.00;101172.73;1700322;84;21221;-68
2021/06/03 00:27:42;;;;;;;7.85;3.95;;;;;;;15.64;100.00;101171.34;1700245;84;21213;-69
2021/06/03 00:30:16;;;;;;;7.72;3.92;;;;;;;15.62;99.80;101175.54;1700746;84;21213;-67
2021/06/03 00:32:49;;;;;;;7.78;3.25;;;;;;;15.60;99.80;101177.24;1700474;84;21269;-67
2021/06/03 00:35:22;;;;;;;7.83;3.42;;;;;;;15.60;99.78;101176.39;1700163;84;21201;-69
2021/06/03 00:37:55;;;;;;;4.50;3.30;;;;;;;15.57;99.70;101180.59;1700343;84;21257;-69
2021/06/03 00:40:29;;;;;;;10.35;3.85;;;;;;;15.57;99.65;101195.17;1700492;84;21770;-68
2021/06/03 00:43:04;;;;;;;8.45;4.70;;;;;;;15.57;99.54;101184.79;1700166;84;21197;-67
2021/06/03 00:45:40;;;;;;;5.90;3.27;;;;;;;15.57;99.46;101188.17;1700218;84;21229;-67
2021/06/03 00:48:13;;;;;;;6.22;3.30;;;;;;;15.55;99.42;101188.44;1700217;84;21746;-75
2021/06/03 00:50:49;;;;;;;7.50;3.12;;;;;;;15.49;99.39;101182.56;1710998;83;21191;-68
2021/06/03 00:53:23;;;;;;;3.15;2.62;;;;;;;15.46;99.55;101199.91;1734513;82;22778;-68
2021/06/03 00:55:58;;;;;;;4.25;3.02;;;;;;;15.46;99.64;101195.70;1768231;81;21186;-68
2021/06/03 00:58:34;;;;;;;3.50;2.83;;;;;;;15.43;99.76;101197.69;1768265;81;21194;-68
2021/06/03 01:01:09;;;;;;;8.63;2.98;;;;;;;15.41;99.91;101203.28;1767836;81;21215;-67
2021/06/03 01:03:42;;;;;;;4.15;3.12;;;;;;;15.36;100.00;101194.33;1768128;81;21167;-68
2021/06/03 01:06:18;;;;;;;7.22;3.50;;;;;;;15.34;100.00;101200.74;1768105;81;21178;-69
2021/06/03 01:09:03;;;;;;;3.55;2.65;;;;;;;15.31;100.00;101199.88;1767962;81;21248;-70
2021/06/03 01:12:30;;;;;;;5.03;2.83;;;;;;;15.29;99.99;101199.34;1767972;81;21816;-73
2021/06/03 01:15:06;;;;;;;7.00;3.45;;;;;;;15.26;99.30;101201.83;1709268;84;21214;-75
2021/06/03 01:17:39;;;;;;;5.53;3.00;;;;;;;15.23;99.17;101202.39;1745027;82;21193;-74
2021/06/03 01:20:15;;;;;;;4.80;3.20;;;;;;;15.24;98.96;101206.32;1730165;83;21385;-75
2021/06/03 01:23:16;;;;;;;6.08;4.03;;;;;;;15.23;98.52;101221.44;1770803;80;21241;-74
2021/06/03 01:25:50;;;;;;;13.95;5.65;;;;;;;15.24;98.58;101211.92;1774560;80;21218;-73
2021/06/03 01:28:25;;;;;;;7.72;4.10;;;;;;;15.27;98.54;101219.73;1775408;81;21178;-74
2021/06/03 01:30:57;;;;;;;8.03;4.15;;;;;;;15.26;98.43;101225.61;1760358;81;21934;-73
2021/06/03 01:33:32;;;;;;;8.18;3.75;;;;;;;15.24;98.32;101221.71;1775581;81;21197;-74
2021/06/03 01:36:07;;;;;;;10.00;4.17;;;;;;;15.21;98.45;101222.25;1731606;82;21270;-74
2021/06/03 01:38:42;;;;;;;6.65;4.00;;;;;;;15.23;98.67;101227.58;1717495;82;21182;-72
2021/06/03 01:41:17;;;;;;;6.00;3.72;;;;;;;15.24;98.76;101229.25;1728451;83;21333;-74
2021/06/03 01:43:50;;;;;;;8.33;3.55;;;;;;;15.26;98.63;101228.41;1715295;82;21163;-74
2021/06/03 01:46:23;;;;;;;6.75;3.20;;;;;;;15.25;98.60;101231.78;1743331;82;21325;-75
2021/06/03 01:48:56;;;;;;;4.55;3.45;;;;;;;15.24;98.64;101231.50;1743354;82;21201;-74
2021/06/03 01:51:33;;;;;;;5.28;3.17;;;;;;;15.25;98.77;101233.18;1743299;82;21182;-73
2021/06/03 01:54:06;;;;;;;;;;;;;;;15.27;98.77;101230.93;1748134;82;21276;-74
2021/06/03 01:56:38;;;;;;;6.45;3.67;;;;;;;15.29;98.73;101235.71;1748991;81;20511;-75
2021/06/03 01:59:12;;;;;;;4.62;2.72;;;;;;;15.30;98.77;101234.59;1748783;82;21341;-74
2021/06/03 02:01:45;;;;;;;7.33;4.17;;;;;;;15.32;98.84;101236.57;1748909;82;21274;-74
2021/06/03 02:04:19;;;;;;;4.80;3.80;;;;;;;15.37;98.85;101239.38;1748845;81;21444;-75
2021/06/03 02:06:52;;;;;;;;;;;;;;;15.40;98.79;101240.20;1751353;82;21724;-74
2021/06/03 02:09:26;;;;;;;;;;;;;;;15.43;98.61;101236.86;1751350;82;20638;-74
2021/06/03 02:11:59;;;;;;;4.92;3.77;;;;;;;15.45;98.62;101237.42;1761065;80;20279;-74
2021/06/03 02:14:36;;;;;;;13.18;3.75;;;;;;;15.45;98.70;101233.22;1781206;80;21703;-74
2021/06/03 02:17:23;;;;;;;10.40;3.75;;;;;;;15.46;98.67;101241.07;1781245;80;21723;-74
2021/06/03 02:20:14;;;;;;;9.65;3.62;;;;;;;15.47;98.70;101237.97;1763396;81;21321;-74
2021/06/03 02:22:49;;;;;;;5.22;3.55;;;;;;;15.47;98.63;101239.36;1781202;80;21236;-74
2021/06/03 02:25:25;;;;;;;12.00;4.22;;;;;;;15.50;98.73;101240.22;1781327;80;21734;-74
2021/06/03 02:27:58;;;;;;;6.97;4.22;;;;;;;15.54;98.67;101236.30;1763314;81;21254;-73
2021/06/03 02:30:33;;;;;;;4.75;3.58;;;;;;;15.53;98.50;101241.05;1781251;80;21727;-73
2021/06/03 02:33:07;;;;;;;8.18;3.30;;;;;;;15.56;98.47;101243.30;1781111;80;21209;-74
2021/06/03 02:35:41;;;;;;;6.87;3.55;;;;;;;15.58;98.39;101242.45;1763318;81;21337;-73
2021/06/03 02:38:16;;;;;;;7.53;4.22;;;;;;;15.62;98.31;101245.53;1781247;80;21190;-72
2021/06/03 02:40:48;;;;;;;7.42;4.37;;;;;;;15.63;98.23;101246.66;1781350;80;21193;-74
2021/06/03 02:43:22;;;;;;;8.45;3.55;;;;;;;15.68;98.20;101250.86;1763504;81;21428;-73
2021/06/03 02:45:55;;;;;;;5.95;4.35;;;;;;;15.66;97.91;101253.11;1781414;80;21248;-71
2021/06/03 02:48:30;;;;;;;6.75;3.72;;;;;;;15.65;97.74;101250.58;1780937;80;21205;-73
2021/06/03 02:51:03;;;;;;;8.30;4.50;;;;;;;15.66;97.79;101256.45;1763561;81;21285;-71
2021/06/03 02:53:37;;;;;;;7.25;4.00;;;;;;;15.67;97.69;101256.73;1781324;80;21252;-72
2021/06/03 02:56:13;;;;;;;8.03;4.53;;;;;;;15.67;97.41;101259.53;1776494;80;21337;-75
2021/06/03 02:58:46;;;;;;;6.65;3.62;;;;;;;15.64;97.12;101258.13;1746774;82;21870;-74
2021/06/03 03:01:20;;;;;;;8.40;4.55;;;;;;;15.63;97.11;101252.84;1751956;81;21368;-73
2021/06/03 03:03:53;;;;;;;8.83;4.42;;;;;;;15.64;96.98;101257.31;1720697;82;21365;-75
2021/06/03 03:06:27;;;;;;;5.85;3.58;;;;;;;15.63;96.89;101260.66;1738500;81;21712;-73
2021/06/03 03:09:03;;;;;;;7.45;4.10;;;;;;;15.61;96.84;101258.70;1726952;82;21219;-72
2021/06/03 03:11:36;;;;;;;7.97;3.95;;;;;;;15.59;96.71;101256.72;1717223;83;21684;-73
2021/06/03 03:14:11;;;;;;;8.30;3.50;;;;;;;15.60;96.75;101259.83;1732696;83;21213;-67
2021/06/03 03:16:44;;;;;;;;;;;;;;;15.62;96.65;101263.18;1733517;81;21189;-72
2021/06/03 03:19:16;;;;;;;12.03;4.37;;;;;;;15.65;96.46;101258.41;1729965;83;20199;-70
2021/06/03 03:21:49;;;;;;;10.10;4.15;;;;;;;15.63;96.29;101250.86;1736534;81;21681;-72
2021/06/03 03:24:22;;;;;;;7.67;4.17;;;;;;;15.62;96.14;101251.98;1745588;82;21324;-71
2021/06/03 03:26:55;;;;;;;;;;;;;;;15.64;96.16;101260.93;1731423;82;21435;-73
2021/06/03 03:29:28;;;;;;;9.68;5.42;;;;;;;15.67;95.97;101256.19;1768598;80;20611;-71
2021/06/03 03:32:02;;;;;;;8.55;4.08;;;;;;;15.62;95.74;101257.58;1736835;82;21835;-72
2021/06/03 03:34:35;;;;;;;10.43;4.12;;;;;;;15.60;95.71;101251.44;1758462;81;21317;-71
2021/06/03 03:37:09;;;;;;;6.70;3.90;;;;;;;15.57;95.51;101251.16;1776305;81;21436;-73
2021/06/03 03:39:42;;;;;;;6.80;3.50;;;;;;;15.56;95.45;101268.50;1758120;81;21254;-73
2021/06/03 03:42:16;;;;;;;8.18;3.65;;;;;;;15.54;95.24;101267.09;1776149;80;21329;-72
2021/06/03 03:44:48;;;;;;;11.33;3.95;;;;;;;15.52;95.22;101268.77;1768316;81;21894;-71
2021/06/03 03:47:22;;;;;;;10.45;3.80;;;;;;;15.50;95.15;101279.95;1733519;82;21206;-70
2021/06/03 03:49:55;;;;;;;6.87;3.42;;;;;;;15.47;95.12;101281.35;1737755;82;21251;-71
2021/06/03 03:52:28;;;;;;;;;;;;;;;15.45;95.18;101279.40;1735800;82;21171;-71
2021/06/03 03:55:02;;;;;;;12.88;3.85;;;;;;;15.47;95.42;101274.35;1763488;81;20181;-71
2021/06/03 03:57:36;;;;;;;9.25;4.50;;;;;;;15.49;95.44;101285.28;1712069;82;21353;-70
2021/06/03 04:00:16;;;;;;;8.15;3.67;;;;;;;15.50;95.37;101285.01;1715911;82;21319;-73
2021/06/03 04:02:48;;;;;;;7.53;3.35;;;;;;;15.50;95.18;101287.81;1711449;83;21190;-70
2021/06/03 04:05:22;;;;;;;7.08;3.17;;;;;;;15.50;95.15;101298.15;1715356;83;21189;-70
2021/06/03 04:07:55;;;;;;;11.55;3.67;;;;;;;15.53;95.24;101291.44;1742667;82;21186;-71
2021/06/03 04:10:30;;;;;;;7.83;3.90;;;;;;;15.55;95.12;101294.81;1742564;82;21183;-70
2021/06/03 04:13:04;;;;;;;7.97;3.37;;;;;;;15.58;95.09;101294.82;1742617;82;21262;-72
2021/06/03 04:15:38;;;;;;;6.80;3.35;;;;;;;15.57;94.90;101299.56;1738414;82;21174;-71
2021/06/03 04:18:11;;;;;;;11.90;3.40;;;;;;;15.57;94.72;101302.37;1740665;82;21356;-74
2021/06/03 04:20:43;;;;;;;6.78;3.40;;;;;;;15.56;94.66;101310.48;1742993;82;21240;-74
2021/06/03 04:23:17;;;;;;;12.30;2.80;;;;;;;15.57;94.67;101305.16;1724044;83;21269;-73
2021/06/03 04:25:53;;;;;;;14.58;3.70;;;;;;;15.55;94.39;101315.81;1711384;84;21399;-74
2021/06/03 04:28:26;;;;;;;9.95;3.50;;;;;;;15.57;94.22;101306.56;1723205;83;21338;-74
2021/06/03 04:30:58;;;;;;;5.85;3.27;;;;;;;15.60;94.15;101314.97;1731139;83;21342;-74
2021/06/03 04:33:31;;;;;;;10.25;4.15;;;;;;;15.63;93.95;101313.03;1729673;83;21391;-74
2021/06/03 04:36:04;;;;;;;6.10;3.20;;;;;;;15.67;93.93;101314.13;1729704;83;21865;-74
2021/06/03 04:38:36;;;;;;;4.97;3.20;;;;;;;15.68;93.53;101311.06;1701891;83;21845;-72
2021/06/03 04:41:09;;;;;;;14.20;4.40;;;;;;;15.64;93.36;101307.70;1729836;83;21332;-75
2021/06/03 04:43:43;;;;;;;10.57;3.27;;;;;;;15.64;93.38;101316.11;1732385;82;21317;-71
2021/06/03 04:46:16;;;;;;;10.15;3.52;;;;;;;15.63;93.35;101316.65;1732398;82;21818;-69
2021/06/03 04:48:49;;;;;;;13.70;4.42;;;;;;;15.66;93.61;101327.31;1738916;82;21842;-68
2021/06/03 04:51:21;;;;;;;6.83;3.83;;;;;;;15.69;93.68;101319.73;1729544;83;21327;-66
2021/06/03 04:53:55;;;;;;;6.30;3.40;;;;;;;15.71;93.55;101330.09;1733072;82;21233;-69
2021/06/03 04:56:27;;;;;;;10.03;3.58;;;;;;;15.73;93.52;101325.07;1732842;82;21375;-68
2021/06/03 04:59:00;;;;;;;7.90;4.00;;;;;;;15.71;93.44;101332.89;1734457;82;21381;-69
2021/06/03 05:01:33;;;;;;;6.05;3.70;;;;;;;15.75;93.53;101332.63;1808350;79;21242;-71
2021/06/03 05:04:06;;;;;;;12.05;3.80;;;;;;;15.82;93.50;101337.38;1784635;79;21180;-73
2021/06/03 05:06:39;;;;;;;9.48;3.17;;;;;;;15.86;93.19;101343.27;1772080;81;21691;-68
2021/06/03 05:09:13;;;;;;;17.82;3.77;;;;;;;15.86;93.00;101337.12;1772275;81;21323;-67
2021/06/03 05:11:46;;;;;;;11.75;4.30;;;;;;;15.86;92.68;101342.72;1800235;79;21373;-69
2021/06/03 05:14:19;;;;;;;;;;;;;;;15.85;92.53;101348.05;1819598;79;21179;-69
2021/06/03 05:16:51;;;;;;;12.95;4.03;;;;;;;15.85;92.23;101342.44;1784682;79;20192;-73
2021/06/03 05:19:24;;;;;;;8.15;3.65;;;;;;;15.84;92.14;101340.77;1797586;79;21178;-69
2021/06/03 05:21:58;;;;;;;9.30;3.67;;;;;;;15.88;91.87;101339.06;1735150;82;21787;-70
2021/06/03 05:24:30;;;;;;;10.05;3.75;;;;;;;15.87;91.33;101343.00;1780067;79;21321;-69
2021/06/03 05:27:03;;;;;;;8.37;3.57;;;;;;;15.84;91.13;101349.17;1803862;79;21183;-69
2021/06/03 05:29:36;;;;;;;9.60;3.40;;;;;;;15.82;90.95;101335.98;1735396;82;21357;-70
2021/06/03 05:32:10;;;;;;;12.50;4.10;;;;;;;15.81;90.49;101345.52;1793060;79;21388;-70
2021/06/03 05:34:42;;;;;;;10.82;3.98;;;;;;;15.81;90.21;101352.52;1772939;81;21230;-68
2021/06/03 05:37:15;;;;;;;9.33;4.00;;;;;;;15.81;90.15;101345.52;1793450;79;21249;-71
2021/06/03 05:39:48;;;;;;;11.28;4.47;;;;;;;15.82;90.03;101344.39;1735285;83;21261;-70
2021/06/03 05:42:22;;;;;;;9.73;4.08;;;;;;;15.82;89.88;101340.77;1803716;79;21167;-70
2021/06/03 05:44:55;;;;;;;9.38;3.92;;;;;;;15.81;89.49;101342.70;1726431;82;21238;-69
2021/06/03 05:47:27;;;;;;;12.67;4.10;;;;;;;15.82;89.34;101349.98;1803948;79;21356;-72
2021/06/03 05:50:00;;;;;;;13.85;6.05;;;;;;;15.86;89.36;101341.31;1803957;79;21446;-70
2021/06/03 05:52:33;;;;;;;28.17;5.85;;;;;;;15.89;89.20;101346.34;1735254;83;21234;-69
2021/06/03 05:55:07;;;;;;;14.68;4.40;;;;;;;15.90;88.78;101349.45;1803937;79;21199;-69
2021/06/03 05:57:42;;;;;;;10.25;3.20;;;;;;;15.90;88.55;101350.00;1735378;83;21356;-70
2021/06/03 06:00:22;;;;;;;9.43;4.53;;;;;;;15.88;88.32;101350.27;1803525;79;21163;-68
2021/06/03 06:03:09;;;;;;;9.45;4.05;;;;;;;15.88;88.23;101343.27;1718530;82;21376;-68
2021/06/03 06:08:24;;;;;;;8.68;3.70;;;;;;;15.91;87.82;101348.33;1786405;78;21384;-79
2021/06/03 06:10:56;;;;;;;8.28;3.25;;;;;;;15.90;87.29;101345.80;1790708;79;21391;-69
2021/06/03 06:13:29;;;;;;;13.62;4.35;;;;;;;15.89;86.02;101353.34;1802663;79;21668;-71
2021/06/03 06:16:04;;;;;;;13.48;3.30;;;;;;;15.86;85.90;101356.72;1782427;79;21347;-70
2021/06/03 06:18:38;;;;;;;13.10;3.35;;;;;;;15.84;85.25;101352.52;1734469;82;21362;-69
2021/06/03 06:21:12;;;;;;;6.30;3.50;;;;;;;15.84;85.54;101366.52;1759187;80;21175;-68
2021/06/03 06:23:46;;;;;;;10.75;3.55;;;;;;;15.88;85.32;101364.85;1743019;81;21377;-68
2021/06/03 06:26:19;;;;;;;10.45;3.60;;;;;;;15.89;85.21;101357.55;1798608;79;21349;-70
2021/06/03 06:28:52;;;;;;;10.70;3.23;;;;;;;15.93;85.36;101357.28;1802167;79;21167;-68
2021/06/03 06:31:25;;;;;;;12.25;4.80;;;;;;;16.01;85.36;101360.91;1800106;79;21549;-67
2021/06/03 06:33:58;;;;;;;30.40;18.25;;;;;;;16.08;85.10;101357.27;1798025;79;21321;-68
2021/06/03 06:36:31;;;;;;;35.05;20.25;;;;;;;16.13;84.52;101364.86;1798201;79;21322;-69
2021/06/03 06:39:04;;;;;;;14.07;9.37;;;;;;;16.16;83.82;101367.94;1753852;81;21396;-69
2021/06/03 06:41:41;;;;;;;8.43;4.95;;;;;;;16.18;83.30;101369.34;1761486;81;21838;-70
2021/06/03 06:44:13;;;;;;;15.45;4.37;;;;;;;16.19;82.99;101377.16;1795882;79;21341;-69
2021/06/03 06:46:46;;;;;;;9.80;3.67;;;;;;;16.22;83.39;101369.61;1800245;79;21228;-69
2021/06/03 06:49:19;;;;;;;10.78;5.42;;;;;;;16.27;83.35;101368.22;1795279;79;21909;-69
2021/06/03 06:51:53;;;;;;;8.95;3.45;;;;;;;16.29;82.46;101366.81;1797500;79;21368;-69
2021/06/03 06:54:26;;;;;;;8.57;3.63;;;;;;;16.31;82.50;101370.72;1800369;79;21400;-70
2021/06/03 06:57:00;;;;;;;12.68;4.00;;;;;;;16.31;82.16;101368.77;1798271;78;21340;-69
2021/06/03 06:59:32;;;;;;;17.92;3.33;;;;;;;16.33;82.10;101369.89;1804333;79;21624;-70
2021/06/03 07:02:06;;;;;;;7.85;3.42;;;;;;;16.32;82.45;101367.64;1806791;79;21293;-69
2021/06/03 07:04:38;;;;;;;9.20;4.13;;;;;;;16.34;82.24;101368.19;1808067;79;21348;-69
2021/06/03 07:07:11;;;;;;;7.10;3.27;;;;;;;16.34;81.94;101372.97;1811125;79;21370;-70
2021/06/03 07:09:46;;;;;;;8.73;3.67;;;;;;;16.34;81.69;101375.77;1811014;79;21304;-69
2021/06/03 07:12:19;;;;;;;10.68;3.00;;;;;;;16.34;81.61;101372.97;1803817;79;21214;-69
2021/06/03 07:14:51;;;;;;;12.60;4.15;;;;;;;16.36;81.19;101372.12;1809930;79;21170;-70
2021/06/03 07:17:25;;;;;;;8.58;3.27;;;;;;;16.37;81.48;101376.59;1805419;79;21233;-68
2021/06/03 07:20:02;;;;;;;10.23;3.60;;;;;;;16.37;81.42;101370.44;1795922;79;22491;-70
2021/06/03 07:22:37;;;;;;;9.93;3.15;;;;;;;16.37;81.51;101371.84;1807859;79;21385;-70
2021/06/03 07:25:13;;;;;;;9.65;3.33;;;;;;;16.39;81.58;101371.02;1807921;79;21222;-68
2021/06/03 07:27:46;;;;;;;;;;;;;;;16.41;80.39;101370.75;1794929;79;21320;-69
2021/06/03 07:30:22;;;;;;;8.55;3.70;;;;;;;16.42;80.83;101373.83;1808401;79;20255;-70
2021/06/03 07:32:55;;;;;;;14.68;3.47;;;;;;;16.46;80.85;101377.17;1814119;79;21673;-69
2021/06/03 07:35:33;;;;;;;10.70;2.75;;;;;;;16.49;80.55;101374.38;1813624;79;21375;-70
2021/06/03 07:38:09;;;;;;;9.58;3.72;;;;;;;16.49;80.07;101373.83;1771356;79;21296;-70
2021/06/03 07:40:41;;;;;;;13.83;3.90;;;;;;;16.49;79.80;101371.02;1803857;79;21348;-69
2021/06/03 07:43:17;;;;;;;17.77;4.15;;;;;;;16.53;79.51;101377.72;1809451;79;21316;-71
2021/06/03 07:45:49;;;;;;;10.05;3.40;;;;;;;16.56;79.27;101384.73;1807441;79;21194;-69
2021/06/03 07:48:23;;;;;;;9.43;3.35;;;;;;;16.56;78.77;101386.13;1803999;79;21324;-70
2021/06/03 07:50:56;;;;;;;10.80;3.42;;;;;;;16.58;78.16;101385.31;1805675;79;21317;-70
2021/06/03 07:53:28;;;;;;;15.70;3.37;;;;;;;16.63;78.17;101381.09;1806039;79;21850;-70
2021/06/03 07:56:01;;;;;;;10.45;3.20;;;;;;;16.69;77.70;101388.34;1805454;79;21190;-69
2021/06/03 07:58:35;;;;;;;10.50;3.65;;;;;;;16.72;77.17;101390.59;1793928;79;21377;-70
2021/06/03 08:01:08;;;;;;;7.78;3.40;;;;;;;16.80;77.77;101387.20;1775343;81;21190;-69
2021/06/03 08:03:43;;;;;;;6.35;2.87;;;;;;;16.90;77.76;101388.59;1775484;81;21252;-67
2021/06/03 08:06:17;;;;;;;17.80;3.67;;;;;;;17.03;77.68;101390.78;1775315;81;21220;-68
2021/06/03 08:08:51;;;;;;;10.13;4.15;;;;;;;17.17;77.12;101383.42;1775268;81;21232;-68
2021/06/03 08:11:25;;;;;;;12.43;3.17;;;;;;;17.30;76.76;101391.22;1775612;81;21146;-69
2021/06/03 08:14:00;;;;;;;8.20;4.05;;;;;;;17.41;75.49;101396.55;1775454;81;21229;-69
2021/06/03 08:16:33;;;;;;;7.83;3.65;;;;;;;17.53;75.27;101391.98;1775322;79;21699;-70
2021/06/03 08:19:08;;;;;;;12.65;3.85;;;;;;;17.65;74.74;101392.48;1775306;81;21218;-71
2021/06/03 08:21:42;;;;;;;13.08;3.65;;;;;;;17.79;74.01;101397.16;1775524;81;21182;-69
2021/06/03 08:24:15;;;;;;;8.28;3.25;;;;;;;17.95;73.44;101402.12;1775524;81;21189;-70
2021/06/03 08:26:53;;;;;;;7.15;3.05;;;;;;;18.05;71.13;101405.69;1775127;81;21237;-71
2021/06/03 08:29:26;;;;;;;10.15;4.20;;;;;;;18.13;70.43;101400.02;1775429;81;21304;-69
2021/06/03 08:32:00;;;;;;;9.75;3.60;;;;;;;18.22;70.50;101398.27;1775674;81;21808;-70
2021/06/03 08:34:35;;;;;;;6.42;3.90;;;;;;;18.31;70.82;101398.78;1775426;81;21178;-70
2021/06/03 08:37:07;;;;;;;6.55;3.10;;;;;;;18.37;70.55;101402.38;1777636;79;21217;-70
2021/06/03 08:39:40;;;;;;;8.73;2.70;;;;;;;18.43;69.97;101392.20;1793955;79;21320;-71
2021/06/03 08:42:14;;;;;;;8.40;3.12;;;;;;;18.50;69.63;101399.73;1814105;79;21312;-72
2021/06/03 08:44:47;;;;;;;7.55;2.80;;;;;;;18.55;69.07;101395.47;1814172;79;21170;-69
2021/06/03 08:47:21;;;;;;;13.25;3.67;;;;;;;18.59;68.96;101388.67;1813638;79;21261;-69
2021/06/03 08:49:55;;;;;;;17.62;3.75;;;;;;;18.60;67.17;101394.57;1814435;79;21374;-69
2021/06/03 08:52:28;;;;;;;13.65;3.58;;;;;;;18.56;66.40;101392.91;1810525;79;21472;-70
2021/06/03 08:55:03;;;;;;;21.57;4.73;;;;;;;18.53;66.73;101391.27;1814508;79;21182;-71
2021/06/03 08:57:37;;;;;;;8.20;2.98;;;;;;;18.48;66.33;101393.53;1813828;79;21288;-70
2021/06/03 09:00:10;;;;;;;;;;;;;;;18.43;66.69;101390.80;1813296;79;21349;-70
2021/06/03 09:02:44;;;;;;;10.55;3.10;;;;;;;18.41;67.09;101388.83;1774690;79;20209;-73
2021/06/03 09:05:19;;;;;;;13.13;4.10;;;;;;;18.42;67.05;101390.50;1754125;79;21845;-74
2021/06/03 09:07:52;;;;;;;10.85;3.42;;;;;;;18.41;66.67;101390.23;1814246;79;21178;-72
2021/06/03 09:10:38;;;;;;;14.50;2.72;;;;;;;18.42;66.46;101393.31;1817166;78;21159;-74
2021/06/03 09:13:21;;;;;;;4.95;3.17;;;;;;;18.47;66.04;101393.86;1810378;79;21336;-73
2021/06/03 09:15:59;;;;;;;10.48;3.50;;;;;;;18.52;66.13;101402.25;1812481;79;21320;-77
2021/06/03 09:18:39;;;;;;;6.58;3.22;;;;;;;18.60;66.15;101401.02;1814481;79;21178;-75
2021/06/03 09:21:22;;;;;;;5.95;3.02;;;;;;;18.67;65.76;101389.43;1814367;79;21158;-76
2021/06/03 09:24:00;;;;;;;13.03;3.50;;;;;;;18.73;65.64;101392.46;1814746;79;21194;-80
2021/06/03 09:26:38;;;;;;;10.63;4.40;;;;;;;18.77;65.38;101385.93;1817373;79;21885;-77
2021/06/03 09:29:10;;;;;;;8.68;3.33;;;;;;;18.83;66.09;101390.95;1813957;79;21830;-68
2021/06/03 09:31:44;;;;;;;7.25;3.33;;;;;;;18.90;65.68;101384.40;1817096;79;21829;-70
2021/06/03 09:34:22;;;;;;;8.98;2.75;;;;;;;18.93;65.04;101379.56;1816049;79;21225;-70
2021/06/03 09:36:58;;;;;;;10.23;3.05;;;;;;;18.92;65.26;101384.93;1815185;79;22079;-71
2021/06/03 09:39:40;;;;;;;5.28;2.55;;;;;;;18.89;64.56;101373.70;1809261;79;21288;-78
2021/06/03 09:42:19;;;;;;;18.50;3.33;;;;;;;18.90;65.25;101379.59;1813032;79;21344;-71
2021/06/03 09:44:58;;;;;;;6.90;3.15;;;;;;;18.92;65.40;101375.08;1811102;79;21320;-75
2021/06/03 09:47:41;;;;;;;7.15;3.25;;;;;;;18.93;65.87;101371.12;1812553;79;21300;-76
2021/06/03 09:50:14;;;;;;;11.78;3.05;;;;;;;18.93;65.59;101366.34;1810019;79;21292;-74
2021/06/03 09:52:48;;;;;;;9.50;3.00;;;;;;;18.98;65.64;101366.84;1804557;79;21730;-74
2021/06/03 09:55:26;;;;;;;8.58;2.75;;;;;;;19.03;65.93;101371.01;1813749;79;21435;-77
2021/06/03 09:58:01;;;;;;;15.50;2.95;;;;;;;19.06;65.71;101368.43;1780650;79;21221;-75
2021/06/03 10:00:34;;;;;;;13.58;4.53;;;;;;;19.05;65.74;101366.77;1812326;79;21364;-75
2021/06/03 10:03:08;;;;;;;8.48;3.33;;;;;;;19.03;65.89;101358.34;1797987;79;21210;-77
2021/06/03 10:05:44;;;;;;;7.83;3.08;;;;;;;18.99;65.67;101369.92;1802217;79;21289;-79
2021/06/03 10:08:16;;;;;;;9.95;4.05;;;;;;;18.95;66.20;101369.69;1800751;79;21341;-79
2021/06/03 10:10:49;;;;;;;10.20;3.40;;;;;;;18.94;66.76;101368.56;1799830;79;21372;-77
2021/06/03 10:13:24;;;;;;;;;;;;;;;18.93;66.82;101369.71;1819080;79;21691;-82
2021/06/03 10:15:58;;;;;;;8.40;2.83;;;;;;;18.92;65.24;101373.11;1812347;79;20211;-78
2021/06/03 10:18:34;;;;;;;14.85;3.65;;;;;;;18.93;63.95;101378.16;1794264;79;21323;-76
2021/06/03 10:21:10;;;;;;;;;;;;;;;18.94;61.40;101377.02;1774027;79;21669;-74
2021/06/03 10:23:45;;;;;;;9.90;2.20;;;;;;;18.96;61.33;101381.20;1803222;79;20551;-77
2021/06/03 10:26:19;;;;;;;6.05;2.77;;;;;;;18.96;61.36;101373.35;1799146;79;21210;-76
2021/06/03 10:28:55;;;;;;;11.83;3.55;;;;;;;18.98;61.36;101379.52;1801602;78;21202;-83
2021/06/03 10:31:31;;;;;;;11.90;3.37;;;;;;;18.97;60.45;101378.66;1800497;79;21348;-78
2021/06/03 10:34:04;;;;;;;7.00;3.10;;;;;;;18.96;61.38;101386.02;1791263;79;21213;-81
2021/06/03 10:36:37;;;;;;;12.05;3.27;;;;;;;18.94;61.76;101382.64;1801057;79;21253;-75
2021/06/03 10:39:11;;;;;;;14.05;2.92;;;;;;;18.94;61.67;101388.27;1808043;79;21348;-78
2021/06/03 10:41:47;;;;;;;9.50;2.62;;;;;;;18.93;59.17;101395.90;1799258;79;21364;-77
2021/06/03 10:44:21;;;;;;;6.15;3.05;;;;;;;18.92;58.11;101384.93;1796578;79;21304;-78
2021/06/03 10:46:55;;;;;;;10.13;3.30;;;;;;;18.92;57.02;101390.00;1809033;79;21349;-72
2021/06/03 10:49:31;;;;;;;6.92;2.70;;;;;;;18.93;56.86;101394.49;1798610;79;21395;-78
2021/06/03 10:52:11;;;;;;;9.03;2.90;;;;;;;18.94;56.19;101396.72;1768285;79;21175;-82
2021/06/03 10:54:45;;;;;;;9.78;2.70;;;;;;;18.95;56.25;101395.61;1803463;79;21201;-76
2021/06/03 10:57:22;;;;;;;9.90;2.30;;;;;;;18.97;56.69;101392.73;1805687;79;21304;-79
2021/06/03 10:59:55;;;;;;;5.22;2.80;;;;;;;18.99;55.67;101390.48;1804907;79;21201;-78
2021/06/03 11:02:54;;;;;;;9.00;2.60;;;;;;;19.02;56.44;101399.72;1804089;79;21870;-76
2021/06/03 11:05:37;;;;;;;13.50;3.15;;;;;;;19.03;56.46;101394.36;1804966;79;21380;-76
2021/06/03 11:08:43;;;;;;;8.95;3.08;;;;;;;19.06;57.10;101399.41;1800811;79;21198;-76
2021/06/03 11:11:30;;;;;;;8.90;2.80;;;;;;;19.06;56.78;101398.55;1800116;79;21340;-75
2021/06/03 11:14:14;;;;;;;5.67;2.67;;;;;;;19.02;57.22;101405.94;1803432;79;21308;-79
2021/06/03 11:16:50;;;;;;;15.63;3.07;;;;;;;19.01;57.64;101399.45;1800578;79;21183;-78
2021/06/03 11:19:30;;;;;;;7.10;2.77;;;;;;;19.03;57.82;101396.35;1801021;79;21668;-73
2021/06/03 11:22:07;;;;;;;11.73;2.92;;;;;;;19.07;57.91;101408.70;1804791;79;21325;-75
2021/06/03 11:24:42;;;;;;;9.55;3.10;;;;;;;19.10;57.60;101401.90;1808870;79;21272;-73
2021/06/03 11:27:16;;;;;;;12.07;3.20;;;;;;;19.15;57.86;101400.99;1807642;79;21209;-76
2021/06/03 11:29:55;;;;;;;9.25;3.02;;;;;;;19.18;58.34;101408.83;1797220;79;21510;-71
2021/06/03 11:32:35;;;;;;;7.05;2.80;;;;;;;19.21;57.77;101410.50;1795657;79;21341;-78
2021/06/03 11:35:13;;;;;;;7.05;2.77;;;;;;;19.24;58.22;101411.88;1802146;79;21182;-72
2021/06/03 11:37:48;;;;;;;9.80;3.05;;;;;;;19.25;57.70;101413.00;1796232;79;22001;-71
2021/06/03 11:40:24;;;;;;;12.45;3.15;;;;;;;19.26;58.42;101417.48;1794726;79;21330;-76
2021/06/03 11:43:10;;;;;;;9.55;2.65;;;;;;;19.25;58.18;101429.05;1803854;79;21875;-73
2021/06/03 11:45:46;;;;;;;11.43;3.02;;;;;;;19.21;57.76;101429.39;1767170;79;21873;-73
2021/06/03 11:48:25;;;;;;;9.05;2.70;;;;;;;19.17;56.92;101430.53;1795005;79;21774;-71
2021/06/03 11:51:07;;;;;;;14.70;3.25;;;;;;;19.13;56.67;101440.70;1799964;79;21213;-78
2021/06/03 11:53:52;;;;;;;8.70;2.33;;;;;;;19.08;56.82;101440.77;1798592;79;21274;-75
2021/06/03 11:56:27;;;;;;;11.57;2.52;;;;;;;19.05;57.55;101436.30;1790386;79;21167;-76
2021/06/03 11:59:02;;;;;;;5.60;3.55;;;;;;;19.02;57.82;101456.03;1793931;79;21183;-76
2021/06/03 12:01:39;;;;;;;10.10;2.87;;;;;;;18.99;58.60;101453.83;1811686;79;21800;-77
2021/06/03 12:04:20;;;;;;;11.15;3.00;;;;;;;18.91;59.25;101462.08;1822742;79;21173;-76